sensor_id;sensor_type;location;lat;lon;timestamp;P1;durP1;ratioP1;P2;durP2;ratioP2
37855;SDS011;23694;43.274;26.924;2024-03-06T00:00:23;18.27;;;8.90;;
37855;SDS011;23694;43.274;26.924;2024-03-06T00:02:49;22.87;;;8.77;;
37855;SDS011;23694;43.274;26.924;2024-03-06T00:05:15;19.67;;;8.13;;
37855;SDS011;23694;43.274;26.924;2024-03-06T00:07:42;21.30;;;9.70;;
37855;SDS011;23694;43.274;26.924;2024-03-06T00:10:08;16.37;;;9.30;;
37855;SDS011;23694;43.274;26.924;2024-03-06T00:12:35;18.77;;;9.63;;
37855;SDS011;23694;43.274;26.924;2024-03-06T00:15:02;14.13;;;8.37;;
37855;SDS011;23694;43.274;26.924;2024-03-06T00:17:28;19.17;;;11.03;;
37855;SDS011;23694;43.274;26.924;2024-03-06T00:19:54;16.20;;;11.13;;
37855;SDS011;23694;43.274;26.924;2024-03-06T00:22:20;21.10;;;10.37;;
37855;SDS011;23694;43.274;26.924;2024-03-06T00:24:47;21.77;;;11.60;;
37855;SDS011;23694;43.274;26.924;2024-03-06T00:27:13;21.03;;;11.97;;
37855;SDS011;23694;43.274;26.924;2024-03-06T00:29:39;17.47;;;11.73;;
37855;SDS011;23694;43.274;26.924;2024-03-06T00:32:06;18.60;;;11.57;;
37855;SDS011;23694;43.274;26.924;2024-03-06T00:34:33;14.83;;;9.90;;
37855;SDS011;23694;43.274;26.924;2024-03-06T00:36:59;16.87;;;9.70;;
37855;SDS011;23694;43.274;26.924;2024-03-06T00:39:25;18.13;;;10.30;;
37855;SDS011;23694;43.274;26.924;2024-03-06T00:41:51;16.50;;;9.17;;
37855;SDS011;23694;43.274;26.924;2024-03-06T00:44:18;19.57;;;9.57;;
37855;SDS011;23694;43.274;26.924;2024-03-06T00:46:44;13.57;;;8.43;;
37855;SDS011;23694;43.274;26.924;2024-03-06T00:49:10;17.03;;;8.90;;
37855;SDS011;23694;43.274;26.924;2024-03-06T00:51:36;16.97;;;9.60;;
37855;SDS011;23694;43.274;26.924;2024-03-06T00:54:02;17.90;;;8.87;;
37855;SDS011;23694;43.274;26.924;2024-03-06T00:56:30;15.07;;;8.63;;
37855;SDS011;23694;43.274;26.924;2024-03-06T00:58:56;17.20;;;8.37;;
37855;SDS011;23694;43.274;26.924;2024-03-06T01:01:22;17.47;;;8.80;;
37855;SDS011;23694;43.274;26.924;2024-03-06T01:03:48;17.40;;;8.33;;
37855;SDS011;23694;43.274;26.924;2024-03-06T01:06:15;16.57;;;9.10;;
37855;SDS011;23694;43.274;26.924;2024-03-06T01:08:41;13.93;;;8.30;;
37855;SDS011;23694;43.274;26.924;2024-03-06T01:11:07;12.30;;;7.57;;
37855;SDS011;23694;43.274;26.924;2024-03-06T01:13:33;13.23;;;7.90;;
37855;SDS011;23694;43.274;26.924;2024-03-06T01:16:00;13.00;;;7.83;;
37855;SDS011;23694;43.274;26.924;2024-03-06T01:18:26;15.00;;;7.93;;
37855;SDS011;23694;43.274;26.924;2024-03-06T01:20:52;11.93;;;7.67;;
37855;SDS011;23694;43.274;26.924;2024-03-06T01:23:18;18.10;;;8.23;;
37855;SDS011;23694;43.274;26.924;2024-03-06T01:25:45;18.13;;;8.30;;
37855;SDS011;23694;43.274;26.924;2024-03-06T01:28:11;14.50;;;8.40;;
37855;SDS011;23694;43.274;26.924;2024-03-06T01:30:37;15.80;;;8.43;;
37855;SDS011;23694;43.274;26.924;2024-03-06T01:33:03;14.77;;;8.00;;
37855;SDS011;23694;43.274;26.924;2024-03-06T01:35:30;19.47;;;8.37;;
37855;SDS011;23694;43.274;26.924;2024-03-06T01:37:56;18.30;;;8.40;;
37855;SDS011;23694;43.274;26.924;2024-03-06T01:40:23;12.80;;;7.90;;
37855;SDS011;23694;43.274;26.924;2024-03-06T01:42:50;20.10;;;8.50;;
37855;SDS011;23694;43.274;26.924;2024-03-06T01:45:17;17.13;;;8.40;;
37855;SDS011;23694;43.274;26.924;2024-03-06T01:47:43;22.63;;;8.77;;
37855;SDS011;23694;43.274;26.924;2024-03-06T01:50:09;17.67;;;8.47;;
37855;SDS011;23694;43.274;26.924;2024-03-06T01:52:36;17.00;;;8.70;;
37855;SDS011;23694;43.274;26.924;2024-03-06T01:55:04;14.73;;;8.53;;
37855;SDS011;23694;43.274;26.924;2024-03-06T01:57:31;14.17;;;8.43;;
37855;SDS011;23694;43.274;26.924;2024-03-06T01:59:59;18.47;;;9.13;;
37855;SDS011;23694;43.274;26.924;2024-03-06T02:02:25;17.20;;;9.90;;
37855;SDS011;23694;43.274;26.924;2024-03-06T02:04:52;15.90;;;9.67;;
37855;SDS011;23694;43.274;26.924;2024-03-06T02:07:21;17.37;;;10.27;;
37855;SDS011;23694;43.274;26.924;2024-03-06T02:09:48;18.90;;;10.00;;
37855;SDS011;23694;43.274;26.924;2024-03-06T02:12:15;25.37;;;12.87;;
37855;SDS011;23694;43.274;26.924;2024-03-06T02:14:41;21.60;;;11.80;;
37855;SDS011;23694;43.274;26.924;2024-03-06T02:17:08;20.03;;;11.73;;
37855;SDS011;23694;43.274;26.924;2024-03-06T02:19:40;20.03;;;12.87;;
37855;SDS011;23694;43.274;26.924;2024-03-06T02:22:08;21.30;;;12.40;;
37855;SDS011;23694;43.274;26.924;2024-03-06T02:24:36;22.90;;;12.17;;
37855;SDS011;23694;43.274;26.924;2024-03-06T02:27:04;22.17;;;12.37;;
37855;SDS011;23694;43.274;26.924;2024-03-06T02:29:31;22.10;;;12.73;;
37855;SDS011;23694;43.274;26.924;2024-03-06T02:31:59;24.07;;;13.33;;
37855;SDS011;23694;43.274;26.924;2024-03-06T02:34:28;22.00;;;12.50;;
37855;SDS011;23694;43.274;26.924;2024-03-06T02:36:55;22.70;;;12.73;;
37855;SDS011;23694;43.274;26.924;2024-03-06T02:39:22;26.10;;;13.20;;
37855;SDS011;23694;43.274;26.924;2024-03-06T02:41:48;25.77;;;13.40;;
37855;SDS011;23694;43.274;26.924;2024-03-06T02:44:15;23.83;;;14.00;;
37855;SDS011;23694;43.274;26.924;2024-03-06T02:46:46;23.80;;;13.87;;
37855;SDS011;23694;43.274;26.924;2024-03-06T02:49:16;24.90;;;13.67;;
37855;SDS011;23694;43.274;26.924;2024-03-06T02:51:44;24.00;;;13.93;;
37855;SDS011;23694;43.274;26.924;2024-03-06T02:54:10;24.53;;;12.93;;
37855;SDS011;23694;43.274;26.924;2024-03-06T02:56:36;23.97;;;13.70;;
37855;SDS011;23694;43.274;26.924;2024-03-06T02:59:03;20.67;;;13.27;;
37855;SDS011;23694;43.274;26.924;2024-03-06T03:01:29;25.17;;;14.50;;
37855;SDS011;23694;43.274;26.924;2024-03-06T03:03:56;26.63;;;14.67;;
37855;SDS011;23694;43.274;26.924;2024-03-06T03:06:24;22.93;;;14.33;;
37855;SDS011;23694;43.274;26.924;2024-03-06T03:08:50;26.10;;;14.60;;
37855;SDS011;23694;43.274;26.924;2024-03-06T03:11:16;28.33;;;15.50;;
37855;SDS011;23694;43.274;26.924;2024-03-06T03:13:42;30.73;;;16.30;;
37855;SDS011;23694;43.274;26.924;2024-03-06T03:16:17;30.10;;;16.70;;
37855;SDS011;23694;43.274;26.924;2024-03-06T03:18:46;28.17;;;16.23;;
37855;SDS011;23694;43.274;26.924;2024-03-06T03:21:13;26.13;;;15.87;;
37855;SDS011;23694;43.274;26.924;2024-03-06T03:23:40;31.80;;;15.87;;
37855;SDS011;23694;43.274;26.924;2024-03-06T03:26:09;30.77;;;16.30;;
37855;SDS011;23694;43.274;26.924;2024-03-06T03:28:39;29.20;;;16.13;;
37855;SDS011;23694;43.274;26.924;2024-03-06T03:31:09;27.93;;;17.50;;
37855;SDS011;23694;43.274;26.924;2024-03-06T03:33:38;34.70;;;16.47;;
37855;SDS011;23694;43.274;26.924;2024-03-06T03:36:05;28.23;;;16.43;;
37855;SDS011;23694;43.274;26.924;2024-03-06T03:38:33;29.27;;;17.80;;
37855;SDS011;23694;43.274;26.924;2024-03-06T03:41:01;32.53;;;17.60;;
37855;SDS011;23694;43.274;26.924;2024-03-06T03:43:29;32.27;;;17.30;;
37855;SDS011;23694;43.274;26.924;2024-03-06T03:45:56;29.17;;;17.00;;
37855;SDS011;23694;43.274;26.924;2024-03-06T03:48:22;37.70;;;17.87;;
37855;SDS011;23694;43.274;26.924;2024-03-06T03:50:48;31.83;;;18.33;;
37855;SDS011;23694;43.274;26.924;2024-03-06T03:53:14;28.93;;;16.77;;
37855;SDS011;23694;43.274;26.924;2024-03-06T03:55:41;30.60;;;17.20;;
37855;SDS011;23694;43.274;26.924;2024-03-06T03:58:08;31.50;;;17.67;;
37855;SDS011;23694;43.274;26.924;2024-03-06T04:00:34;27.97;;;16.00;;
37855;SDS011;23694;43.274;26.924;2024-03-06T04:03:00;26.97;;;16.10;;
37855;SDS011;23694;43.274;26.924;2024-03-06T04:05:27;32.43;;;16.57;;
37855;SDS011;23694;43.274;26.924;2024-03-06T04:07:53;27.70;;;16.40;;
37855;SDS011;23694;43.274;26.924;2024-03-06T04:10:19;28.13;;;17.20;;
37855;SDS011;23694;43.274;26.924;2024-03-06T04:12:46;32.90;;;18.53;;
37855;SDS011;23694;43.274;26.924;2024-03-06T04:15:12;32.60;;;18.03;;
37855;SDS011;23694;43.274;26.924;2024-03-06T04:17:38;30.27;;;15.77;;
37855;SDS011;23694;43.274;26.924;2024-03-06T04:20:06;28.87;;;16.93;;
37855;SDS011;23694;43.274;26.924;2024-03-06T04:22:33;31.00;;;17.20;;
37855;SDS011;23694;43.274;26.924;2024-03-06T04:24:59;31.80;;;16.67;;
37855;SDS011;23694;43.274;26.924;2024-03-06T04:27:25;28.60;;;16.77;;
37855;SDS011;23694;43.274;26.924;2024-03-06T04:29:51;32.07;;;16.73;;
37855;SDS011;23694;43.274;26.924;2024-03-06T04:32:18;29.53;;;17.70;;
37855;SDS011;23694;43.274;26.924;2024-03-06T04:34:45;25.87;;;16.03;;
37855;SDS011;23694;43.274;26.924;2024-03-06T04:37:12;31.20;;;16.77;;
37855;SDS011;23694;43.274;26.924;2024-03-06T04:39:39;28.63;;;16.33;;
37855;SDS011;23694;43.274;26.924;2024-03-06T04:42:08;28.07;;;16.47;;
37855;SDS011;23694;43.274;26.924;2024-03-06T04:44:34;33.47;;;17.13;;
37855;SDS011;23694;43.274;26.924;2024-03-06T04:47:00;30.17;;;16.83;;
37855;SDS011;23694;43.274;26.924;2024-03-06T04:49:27;31.50;;;16.77;;
37855;SDS011;23694;43.274;26.924;2024-03-06T04:51:53;31.80;;;17.73;;
37855;SDS011;23694;43.274;26.924;2024-03-06T04:54:19;34.37;;;18.03;;
37855;SDS011;23694;43.274;26.924;2024-03-06T04:56:45;27.67;;;16.87;;
37855;SDS011;23694;43.274;26.924;2024-03-06T04:59:11;31.80;;;18.53;;
37855;SDS011;23694;43.274;26.924;2024-03-06T05:01:37;31.10;;;18.27;;
37855;SDS011;23694;43.274;26.924;2024-03-06T05:04:03;31.27;;;17.50;;
37855;SDS011;23694;43.274;26.924;2024-03-06T05:06:30;35.40;;;18.97;;
37855;SDS011;23694;43.274;26.924;2024-03-06T05:08:56;30.93;;;19.00;;
37855;SDS011;23694;43.274;26.924;2024-03-06T05:11:22;33.47;;;18.60;;
37855;SDS011;23694;43.274;26.924;2024-03-06T05:13:48;31.63;;;18.60;;
37855;SDS011;23694;43.274;26.924;2024-03-06T05:16:15;33.93;;;18.37;;
37855;SDS011;23694;43.274;26.924;2024-03-06T05:18:41;32.90;;;18.30;;
37855;SDS011;23694;43.274;26.924;2024-03-06T05:21:07;35.63;;;20.07;;
37855;SDS011;23694;43.274;26.924;2024-03-06T05:23:34;32.10;;;19.23;;
37855;SDS011;23694;43.274;26.924;2024-03-06T05:26:00;34.77;;;20.30;;
37855;SDS011;23694;43.274;26.924;2024-03-06T05:28:26;36.73;;;21.10;;
37855;SDS011;23694;43.274;26.924;2024-03-06T05:30:52;36.53;;;21.57;;
37855;SDS011;23694;43.274;26.924;2024-03-06T05:33:18;35.70;;;21.73;;
37855;SDS011;23694;43.274;26.924;2024-03-06T05:35:44;39.00;;;22.40;;
37855;SDS011;23694;43.274;26.924;2024-03-06T05:38:10;40.20;;;23.37;;
37855;SDS011;23694;43.274;26.924;2024-03-06T05:40:36;41.63;;;23.23;;
37855;SDS011;23694;43.274;26.924;2024-03-06T05:43:06;42.43;;;23.77;;
37855;SDS011;23694;43.274;26.924;2024-03-06T05:45:32;51.67;;;31.97;;
37855;SDS011;23694;43.274;26.924;2024-03-06T05:47:58;40.80;;;23.80;;
37855;SDS011;23694;43.274;26.924;2024-03-06T05:50:24;39.07;;;23.27;;
37855;SDS011;23694;43.274;26.924;2024-03-06T05:52:51;39.33;;;24.77;;
37855;SDS011;23694;43.274;26.924;2024-03-06T05:55:17;45.07;;;23.07;;
37855;SDS011;23694;43.274;26.924;2024-03-06T05:57:43;37.50;;;23.00;;
37855;SDS011;23694;43.274;26.924;2024-03-06T06:00:11;39.70;;;22.80;;
37855;SDS011;23694;43.274;26.924;2024-03-06T06:02:39;37.43;;;22.77;;
37855;SDS011;23694;43.274;26.924;2024-03-06T06:05:05;39.93;;;24.00;;
37855;SDS011;23694;43.274;26.924;2024-03-06T06:07:32;58.00;;;33.37;;
37855;SDS011;23694;43.274;26.924;2024-03-06T06:09:59;37.33;;;21.87;;
37855;SDS011;23694;43.274;26.924;2024-03-06T06:12:25;48.63;;;28.37;;
37855;SDS011;23694;43.274;26.924;2024-03-06T06:14:51;45.67;;;25.17;;
37855;SDS011;23694;43.274;26.924;2024-03-06T06:17:17;37.93;;;20.67;;
37855;SDS011;23694;43.274;26.924;2024-03-06T06:19:44;39.73;;;21.27;;
37855;SDS011;23694;43.274;26.924;2024-03-06T06:22:11;36.90;;;21.90;;
37855;SDS011;23694;43.274;26.924;2024-03-06T06:24:38;36.63;;;20.70;;
37855;SDS011;23694;43.274;26.924;2024-03-06T06:27:04;40.70;;;23.70;;
37855;SDS011;23694;43.274;26.924;2024-03-06T06:29:31;39.37;;;23.33;;
37855;SDS011;23694;43.274;26.924;2024-03-06T06:31:57;35.13;;;20.20;;
37855;SDS011;23694;43.274;26.924;2024-03-06T06:34:23;38.00;;;22.63;;
37855;SDS011;23694;43.274;26.924;2024-03-06T06:36:53;41.07;;;23.30;;
37855;SDS011;23694;43.274;26.924;2024-03-06T06:39:19;44.87;;;24.27;;
37855;SDS011;23694;43.274;26.924;2024-03-06T06:41:45;43.43;;;23.83;;
37855;SDS011;23694;43.274;26.924;2024-03-06T06:44:11;42.33;;;24.57;;
37855;SDS011;23694;43.274;26.924;2024-03-06T06:46:38;45.03;;;23.03;;
37855;SDS011;23694;43.274;26.924;2024-03-06T06:49:05;39.43;;;23.67;;
37855;SDS011;23694;43.274;26.924;2024-03-06T06:51:31;37.43;;;22.33;;
37855;SDS011;23694;43.274;26.924;2024-03-06T06:53:57;40.67;;;21.53;;
37855;SDS011;23694;43.274;26.924;2024-03-06T06:56:23;39.33;;;22.73;;
37855;SDS011;23694;43.274;26.924;2024-03-06T06:58:49;37.00;;;20.73;;
37855;SDS011;23694;43.274;26.924;2024-03-06T07:01:15;38.50;;;23.07;;
37855;SDS011;23694;43.274;26.924;2024-03-06T07:03:42;41.23;;;22.57;;
37855;SDS011;23694;43.274;26.924;2024-03-06T07:06:08;36.00;;;21.90;;
37855;SDS011;23694;43.274;26.924;2024-03-06T07:08:36;43.13;;;22.50;;
37855;SDS011;23694;43.274;26.924;2024-03-06T07:11:03;46.20;;;25.33;;
37855;SDS011;23694;43.274;26.924;2024-03-06T07:13:29;37.07;;;23.40;;
37855;SDS011;23694;43.274;26.924;2024-03-06T07:15:55;44.40;;;25.17;;
37855;SDS011;23694;43.274;26.924;2024-03-06T07:18:21;40.10;;;21.93;;
37855;SDS011;23694;43.274;26.924;2024-03-06T07:20:47;45.27;;;28.80;;
37855;SDS011;23694;43.274;26.924;2024-03-06T07:23:14;45.93;;;27.00;;
37855;SDS011;23694;43.274;26.924;2024-03-06T07:25:40;42.57;;;24.57;;
37855;SDS011;23694;43.274;26.924;2024-03-06T07:28:06;41.13;;;23.67;;
37855;SDS011;23694;43.274;26.924;2024-03-06T07:30:32;33.57;;;20.17;;
37855;SDS011;23694;43.274;26.924;2024-03-06T07:32:58;40.27;;;23.47;;
37855;SDS011;23694;43.274;26.924;2024-03-06T07:35:24;41.27;;;22.50;;
37855;SDS011;23694;43.274;26.924;2024-03-06T07:37:50;39.93;;;24.27;;
37855;SDS011;23694;43.274;26.924;2024-03-06T07:40:17;39.17;;;23.87;;
37855;SDS011;23694;43.274;26.924;2024-03-06T07:42:43;37.60;;;22.60;;
37855;SDS011;23694;43.274;26.924;2024-03-06T07:45:09;44.73;;;24.90;;
37855;SDS011;23694;43.274;26.924;2024-03-06T07:47:35;39.57;;;22.63;;
37855;SDS011;23694;43.274;26.924;2024-03-06T07:50:04;45.43;;;22.27;;
37855;SDS011;23694;43.274;26.924;2024-03-06T07:52:32;40.13;;;23.47;;
37855;SDS011;23694;43.274;26.924;2024-03-06T07:54:58;38.27;;;22.40;;
37855;SDS011;23694;43.274;26.924;2024-03-06T07:57:24;38.50;;;21.90;;
37855;SDS011;23694;43.274;26.924;2024-03-06T07:59:50;35.57;;;20.77;;
37855;SDS011;23694;43.274;26.924;2024-03-06T08:02:18;35.07;;;22.00;;
37855;SDS011;23694;43.274;26.924;2024-03-06T08:04:44;43.30;;;23.50;;
37855;SDS011;23694;43.274;26.924;2024-03-06T08:07:10;32.67;;;20.50;;
37855;SDS011;23694;43.274;26.924;2024-03-06T08:09:36;35.20;;;21.27;;
37855;SDS011;23694;43.274;26.924;2024-03-06T08:12:02;32.17;;;19.37;;
37855;SDS011;23694;43.274;26.924;2024-03-06T08:14:28;32.23;;;19.27;;
37855;SDS011;23694;43.274;26.924;2024-03-06T08:16:57;28.70;;;18.53;;
37855;SDS011;23694;43.274;26.924;2024-03-06T08:19:24;33.93;;;19.93;;
37855;SDS011;23694;43.274;26.924;2024-03-06T08:21:51;31.90;;;19.90;;
37855;SDS011;23694;43.274;26.924;2024-03-06T08:24:17;29.23;;;18.97;;
37855;SDS011;23694;43.274;26.924;2024-03-06T08:26:43;32.13;;;21.03;;
37855;SDS011;23694;43.274;26.924;2024-03-06T08:29:09;29.47;;;18.60;;
37855;SDS011;23694;43.274;26.924;2024-03-06T08:31:35;31.77;;;18.13;;
37855;SDS011;23694;43.274;26.924;2024-03-06T08:34:02;32.90;;;19.07;;
37855;SDS011;23694;43.274;26.924;2024-03-06T08:36:28;33.73;;;17.73;;
37855;SDS011;23694;43.274;26.924;2024-03-06T08:38:54;29.50;;;17.43;;
37855;SDS011;23694;43.274;26.924;2024-03-06T08:41:20;32.53;;;18.50;;
37855;SDS011;23694;43.274;26.924;2024-03-06T08:43:46;28.73;;;17.97;;
37855;SDS011;23694;43.274;26.924;2024-03-06T08:46:12;29.23;;;17.50;;
37855;SDS011;23694;43.274;26.924;2024-03-06T08:48:38;36.37;;;20.20;;
37855;SDS011;23694;43.274;26.924;2024-03-06T08:51:05;27.63;;;17.50;;
37855;SDS011;23694;43.274;26.924;2024-03-06T08:53:36;30.77;;;16.65;;
37855;SDS011;23694;43.274;26.924;2024-03-06T08:56:04;28.10;;;17.47;;
37855;SDS011;23694;43.274;26.924;2024-03-06T08:58:30;32.00;;;18.60;;
37855;SDS011;23694;43.274;26.924;2024-03-06T09:00:57;28.37;;;18.37;;
37855;SDS011;23694;43.274;26.924;2024-03-06T09:03:24;27.57;;;16.57;;
37855;SDS011;23694;43.274;26.924;2024-03-06T09:05:50;25.63;;;16.57;;
37855;SDS011;23694;43.274;26.924;2024-03-06T09:08:17;28.93;;;17.73;;
37855;SDS011;23694;43.274;26.924;2024-03-06T09:10:44;29.00;;;17.40;;
37855;SDS011;23694;43.274;26.924;2024-03-06T09:13:10;30.50;;;17.03;;
37855;SDS011;23694;43.274;26.924;2024-03-06T09:15:36;26.73;;;17.30;;
37855;SDS011;23694;43.274;26.924;2024-03-06T09:18:03;25.47;;;16.23;;
37855;SDS011;23694;43.274;26.924;2024-03-06T09:20:29;26.30;;;17.33;;
37855;SDS011;23694;43.274;26.924;2024-03-06T09:22:55;30.57;;;18.13;;
37855;SDS011;23694;43.274;26.924;2024-03-06T09:25:22;26.50;;;16.77;;
37855;SDS011;23694;43.274;26.924;2024-03-06T09:27:48;30.50;;;17.73;;
37855;SDS011;23694;43.274;26.924;2024-03-06T09:30:14;30.93;;;16.87;;
37855;SDS011;23694;43.274;26.924;2024-03-06T09:32:41;30.43;;;16.87;;
37855;SDS011;23694;43.274;26.924;2024-03-06T09:35:09;35.00;;;19.60;;
37855;SDS011;23694;43.274;26.924;2024-03-06T09:37:35;33.97;;;20.17;;
37855;SDS011;23694;43.274;26.924;2024-03-06T09:40:01;33.93;;;19.37;;
37855;SDS011;23694;43.274;26.924;2024-03-06T09:42:28;25.03;;;17.40;;
37855;SDS011;23694;43.274;26.924;2024-03-06T09:44:55;28.67;;;17.03;;
37855;SDS011;23694;43.274;26.924;2024-03-06T09:47:21;26.60;;;16.93;;
37855;SDS011;23694;43.274;26.924;2024-03-06T09:49:53;30.97;;;17.83;;
37855;SDS011;23694;43.274;26.924;2024-03-06T09:52:19;32.23;;;16.77;;
37855;SDS011;23694;43.274;26.924;2024-03-06T09:54:47;29.07;;;17.10;;
37855;SDS011;23694;43.274;26.924;2024-03-06T09:57:14;29.43;;;17.10;;
37855;SDS011;23694;43.274;26.924;2024-03-06T09:59:42;33.33;;;17.30;;
37855;SDS011;23694;43.274;26.924;2024-03-06T10:02:25;32.37;;;17.10;;
37855;SDS011;23694;43.274;26.924;2024-03-06T10:05:00;28.93;;;17.20;;
37855;SDS011;23694;43.274;26.924;2024-03-06T10:07:27;26.93;;;15.93;;
37855;SDS011;23694;43.274;26.924;2024-03-06T10:09:53;28.43;;;16.37;;
37855;SDS011;23694;43.274;26.924;2024-03-06T10:12:19;53.77;;;36.97;;
37855;SDS011;23694;43.274;26.924;2024-03-06T10:14:53;28.97;;;17.07;;
37855;SDS011;23694;43.274;26.924;2024-03-06T10:17:21;32.10;;;20.93;;
37855;SDS011;23694;43.274;26.924;2024-03-06T10:19:52;26.63;;;16.07;;
37855;SDS011;23694;43.274;26.924;2024-03-06T10:22:19;24.33;;;14.77;;
37855;SDS011;23694;43.274;26.924;2024-03-06T10:24:46;21.20;;;15.03;;
37855;SDS011;23694;43.274;26.924;2024-03-06T10:27:16;27.13;;;16.73;;
37855;SDS011;23694;43.274;26.924;2024-03-06T10:29:43;36.73;;;18.93;;
37855;SDS011;23694;43.274;26.924;2024-03-06T10:32:09;25.60;;;14.27;;
37855;SDS011;23694;43.274;26.924;2024-03-06T10:34:37;25.43;;;15.23;;
37855;SDS011;23694;43.274;26.924;2024-03-06T10:37:03;30.00;;;15.33;;
37855;SDS011;23694;43.274;26.924;2024-03-06T10:39:30;23.50;;;14.30;;
37855;SDS011;23694;43.274;26.924;2024-03-06T10:42:00;27.50;;;14.97;;
37855;SDS011;23694;43.274;26.924;2024-03-06T10:44:28;23.83;;;13.50;;
37855;SDS011;23694;43.274;26.924;2024-03-06T10:46:58;24.73;;;15.40;;
37855;SDS011;23694;43.274;26.924;2024-03-06T10:49:26;23.67;;;14.53;;
37855;SDS011;23694;43.274;26.924;2024-03-06T10:51:59;26.70;;;14.67;;
37855;SDS011;23694;43.274;26.924;2024-03-06T10:54:27;27.27;;;15.00;;
37855;SDS011;23694;43.274;26.924;2024-03-06T10:56:58;27.58;;;14.68;;
37855;SDS011;23694;43.274;26.924;2024-03-06T10:59:25;22.03;;;13.30;;
37855;SDS011;23694;43.274;26.924;2024-03-06T11:01:57;28.97;;;15.60;;
37855;SDS011;23694;43.274;26.924;2024-03-06T11:04:26;22.53;;;13.93;;
37855;SDS011;23694;43.274;26.924;2024-03-06T11:06:56;25.47;;;13.70;;
37855;SDS011;23694;43.274;26.924;2024-03-06T11:09:23;30.40;;;14.37;;
37855;SDS011;23694;43.274;26.924;2024-03-06T11:11:51;20.43;;;14.03;;
37855;SDS011;23694;43.274;26.924;2024-03-06T11:14:17;18.83;;;12.80;;
37855;SDS011;23694;43.274;26.924;2024-03-06T11:16:57;21.40;;;13.47;;
37855;SDS011;23694;43.274;26.924;2024-03-06T11:28:17;22.73;;;13.47;;
37855;SDS011;23694;43.274;26.924;2024-03-06T11:33:19;21.88;;;14.88;;
37855;SDS011;23694;43.274;26.924;2024-03-06T11:38:53;23.07;;;13.77;;
37855;SDS011;23694;43.274;26.924;2024-03-06T11:41:23;24.03;;;14.83;;
37855;SDS011;23694;43.274;26.924;2024-03-06T11:43:51;24.37;;;15.60;;
37855;SDS011;23694;43.274;26.924;2024-03-06T11:46:42;23.27;;;14.97;;
37855;SDS011;23694;43.274;26.924;2024-03-06T11:49:15;24.23;;;13.93;;
37855;SDS011;23694;43.274;26.924;2024-03-06T11:51:52;24.57;;;13.90;;
37855;SDS011;23694;43.274;26.924;2024-03-06T11:54:19;22.80;;;14.07;;
37855;SDS011;23694;43.274;26.924;2024-03-06T11:56:49;19.97;;;13.10;;
37855;SDS011;23694;43.274;26.924;2024-03-06T11:59:17;23.40;;;14.53;;
37855;SDS011;23694;43.274;26.924;2024-03-06T12:01:43;21.07;;;13.30;;
37855;SDS011;23694;43.274;26.924;2024-03-06T12:04:10;24.67;;;14.67;;
37855;SDS011;23694;43.274;26.924;2024-03-06T12:06:37;23.33;;;13.40;;
37855;SDS011;23694;43.274;26.924;2024-03-06T12:09:04;22.70;;;14.13;;
37855;SDS011;23694;43.274;26.924;2024-03-06T12:11:30;24.27;;;13.83;;
37855;SDS011;23694;43.274;26.924;2024-03-06T12:13:57;24.07;;;14.17;;
37855;SDS011;23694;43.274;26.924;2024-03-06T12:16:23;23.37;;;13.57;;
37855;SDS011;23694;43.274;26.924;2024-03-06T12:18:56;21.80;;;13.13;;
37855;SDS011;23694;43.274;26.924;2024-03-06T12:21:27;22.33;;;12.97;;
37855;SDS011;23694;43.274;26.924;2024-03-06T12:26:29;21.40;;;14.43;;
37855;SDS011;23694;43.274;26.924;2024-03-06T12:31:33;25.30;;;13.73;;
37855;SDS011;23694;43.274;26.924;2024-03-06T12:34:00;24.60;;;13.60;;
37855;SDS011;23694;43.274;26.924;2024-03-06T12:36:30;25.13;;;14.37;;
37855;SDS011;23694;43.274;26.924;2024-03-06T12:39:01;22.47;;;13.27;;
37855;SDS011;23694;43.274;26.924;2024-03-06T12:43:55;20.50;;;12.73;;
37855;SDS011;23694;43.274;26.924;2024-03-06T12:46:22;21.53;;;12.83;;
37855;SDS011;23694;43.274;26.924;2024-03-06T12:48:51;23.03;;;13.43;;
37855;SDS011;23694;43.274;26.924;2024-03-06T12:51:17;21.07;;;12.70;;
37855;SDS011;23694;43.274;26.924;2024-03-06T12:53:43;22.73;;;12.83;;
37855;SDS011;23694;43.274;26.924;2024-03-06T12:56:09;22.57;;;12.63;;
37855;SDS011;23694;43.274;26.924;2024-03-06T12:58:36;22.63;;;11.97;;
37855;SDS011;23694;43.274;26.924;2024-03-06T13:01:02;20.97;;;12.87;;
37855;SDS011;23694;43.274;26.924;2024-03-06T13:03:28;23.63;;;13.43;;
37855;SDS011;23694;43.274;26.924;2024-03-06T13:05:54;18.47;;;11.70;;
37855;SDS011;23694;43.274;26.924;2024-03-06T13:08:21;20.87;;;12.07;;
37855;SDS011;23694;43.274;26.924;2024-03-06T13:10:47;23.07;;;13.90;;
37855;SDS011;23694;43.274;26.924;2024-03-06T13:13:13;23.27;;;12.77;;
37855;SDS011;23694;43.274;26.924;2024-03-06T13:15:39;18.47;;;12.70;;
37855;SDS011;23694;43.274;26.924;2024-03-06T13:18:05;22.43;;;14.70;;
37855;SDS011;23694;43.274;26.924;2024-03-06T13:20:32;27.13;;;15.70;;
37855;SDS011;23694;43.274;26.924;2024-03-06T13:22:59;20.23;;;13.13;;
37855;SDS011;23694;43.274;26.924;2024-03-06T13:25:26;29.77;;;13.70;;
37855;SDS011;23694;43.274;26.924;2024-03-06T13:27:52;23.93;;;12.77;;
37855;SDS011;23694;43.274;26.924;2024-03-06T13:30:19;19.90;;;12.37;;
37855;SDS011;23694;43.274;26.924;2024-03-06T13:32:46;19.77;;;12.60;;
37855;SDS011;23694;43.274;26.924;2024-03-06T13:35:12;19.73;;;12.93;;
37855;SDS011;23694;43.274;26.924;2024-03-06T13:37:39;23.13;;;14.30;;
37855;SDS011;23694;43.274;26.924;2024-03-06T13:40:09;21.17;;;12.83;;
37855;SDS011;23694;43.274;26.924;2024-03-06T13:42:42;23.40;;;13.13;;
37855;SDS011;23694;43.274;26.924;2024-03-06T13:45:09;21.93;;;15.30;;
37855;SDS011;23694;43.274;26.924;2024-03-06T13:47:43;24.70;;;14.02;;
37855;SDS011;23694;43.274;26.924;2024-03-06T13:50:11;18.47;;;12.30;;
37855;SDS011;23694;43.274;26.924;2024-03-06T13:52:38;18.67;;;12.37;;
37855;SDS011;23694;43.274;26.924;2024-03-06T13:55:08;23.17;;;12.93;;
37855;SDS011;23694;43.274;26.924;2024-03-06T13:57:36;23.20;;;12.83;;
37855;SDS011;23694;43.274;26.924;2024-03-06T14:00:06;23.77;;;14.57;;
37855;SDS011;23694;43.274;26.924;2024-03-06T14:02:43;24.97;;;14.17;;
37855;SDS011;23694;43.274;26.924;2024-03-06T14:05:11;24.17;;;14.87;;
37855;SDS011;23694;43.274;26.924;2024-03-06T14:07:38;21.87;;;12.23;;
37855;SDS011;23694;43.274;26.924;2024-03-06T14:10:05;23.90;;;12.53;;
37855;SDS011;23694;43.274;26.924;2024-03-06T14:12:33;18.07;;;12.73;;
37855;SDS011;23694;43.274;26.924;2024-03-06T14:15:01;18.60;;;12.87;;
37855;SDS011;23694;43.274;26.924;2024-03-06T14:17:27;22.07;;;13.93;;
37855;SDS011;23694;43.274;26.924;2024-03-06T14:19:53;23.13;;;13.93;;
37855;SDS011;23694;43.274;26.924;2024-03-06T14:22:19;19.80;;;13.37;;
37855;SDS011;23694;43.274;26.924;2024-03-06T14:24:45;21.80;;;13.07;;
37855;SDS011;23694;43.274;26.924;2024-03-06T14:27:12;22.93;;;13.00;;
37855;SDS011;23694;43.274;26.924;2024-03-06T14:29:38;23.13;;;14.17;;
37855;SDS011;23694;43.274;26.924;2024-03-06T14:32:04;21.53;;;13.57;;